sensor_id;sensor_type;location;lat;lon;timestamp;temperature;humidity
22795;DHT22;11564;50.920;11.612;2022-12-07T00:01:17;0.90;99.90
22795;DHT22;11564;50.920;11.612;2022-12-07T00:03:44;1.00;99.90
22795;DHT22;11564;50.920;11.612;2022-12-07T00:06:13;1.00;99.90
22795;DHT22;11564;50.920;11.612;2022-12-07T00:08:39;1.00;99.90
22795;DHT22;11564;50.920;11.612;2022-12-07T00:11:10;1.00;99.90
22795;DHT22;11564;50.920;11.612;2022-12-07T00:13:37;1.00;99.90
22795;DHT22;11564;50.920;11.612;2022-12-07T00:16:11;1.00;99.90
22795;DHT22;11564;50.920;11.612;2022-12-07T00:18:37;0.90;99.90
22795;DHT22;11564;50.920;11.612;2022-12-07T00:21:05;0.90;99.90
22795;DHT22;11564;50.920;11.612;2022-12-07T00:23:31;0.90;99.90
22795;DHT22;11564;50.920;11.612;2022-12-07T00:26:04;0.80;99.90
22795;DHT22;11564;50.920;11.612;2022-12-07T00:28:29;0.70;99.90
22795;DHT22;11564;50.920;11.612;2022-12-07T00:31:09;0.60;99.90
22795;DHT22;11564;50.920;11.612;2022-12-07T00:33:36;0.50;99.90
22795;DHT22;11564;50.920;11.612;2022-12-07T00:36:03;0.40;99.90
22795;DHT22;11564;50.920;11.612;2022-12-07T00:38:32;0.30;99.90
22795;DHT22;11564;50.920;11.612;2022-12-07T00:40:59;0.20;99.90
22795;DHT22;11564;50.920;11.612;2022-12-07T00:43:26;0.20;99.90
22795;DHT22;11564;50.920;11.612;2022-12-07T00:45:53;0.00;99.90
22795;DHT22;11564;50.920;11.612;2022-12-07T00:48:18;0.00;99.90
22795;DHT22;11564;50.920;11.612;2022-12-07T00:50:44;0.00;99.90
22795;DHT22;11564;50.920;11.612;2022-12-07T00:53:10;-0.10;99.90
22795;DHT22;11564;50.920;11.612;2022-12-07T00:55:35;-0.20;99.90
22795;DHT22;11564;50.920;11.612;2022-12-07T00:58:02;-0.30;99.90
22795;DHT22;11564;50.920;11.612;2022-12-07T01:00:27;-0.30;99.90
22795;DHT22;11564;50.920;11.612;2022-12-07T01:02:53;-0.40;99.90
22795;DHT22;11564;50.920;11.612;2022-12-07T01:05:19;-0.40;99.90
22795;DHT22;11564;50.920;11.612;2022-12-07T01:07:44;-0.50;99.90
22795;DHT22;11564;50.920;11.612;2022-12-07T01:10:12;-0.50;99.90
22795;DHT22;11564;50.920;11.612;2022-12-07T01:12:37;-0.50;99.90
22795;DHT22;11564;50.920;11.612;2022-12-07T01:15:04;-0.60;99.90
22795;DHT22;11564;50.920;11.612;2022-12-07T01:17:29;-0.70;99.90
22795;DHT22;11564;50.920;11.612;2022-12-07T01:19:55;-0.70;99.90
22795;DHT22;11564;50.920;11.612;2022-12-07T01:22:21;-0.70;99.90
22795;DHT22;11564;50.920;11.612;2022-12-07T01:24:46;-0.70;99.90
22795;DHT22;11564;50.920;11.612;2022-12-07T01:27:13;-0.50;99.90
22795;DHT22;11564;50.920;11.612;2022-12-07T01:29:39;-0.60;99.90
22795;DHT22;11564;50.920;11.612;2022-12-07T01:32:05;-0.60;99.90
22795;DHT22;11564;50.920;11.612;2022-12-07T01:34:30;-0.60;99.90
22795;DHT22;11564;50.920;11.612;2022-12-07T01:36:56;-0.70;99.90
22795;DHT22;11564;50.920;11.612;2022-12-07T01:39:22;-0.70;99.90
22795;DHT22;11564;50.920;11.612;2022-12-07T01:41:48;-0.50;99.90
22795;DHT22;11564;50.920;11.612;2022-12-07T01:44:20;-0.50;99.90
22795;DHT22;11564;50.920;11.612;2022-12-07T01:46:53;-0.50;99.90
22795;DHT22;11564;50.920;11.612;2022-12-07T01:49:45;-0.50;99.90
22795;DHT22;11564;50.920;11.612;2022-12-07T01:52:22;-0.40;99.90
22795;DHT22;11564;50.920;11.612;2022-12-07T01:54:53;-0.30;99.90
22795;DHT22;11564;50.920;11.612;2022-12-07T01:57:20;-0.30;99.90
22795;DHT22;11564;50.920;11.612;2022-12-07T01:59:48;-0.30;99.90
22795;DHT22;11564;50.920;11.612;2022-12-07T02:02:30;-0.30;99.90
22795;DHT22;11564;50.920;11.612;2022-12-07T02:05:01;-0.10;99.90
22795;DHT22;11564;50.920;11.612;2022-12-07T02:07:28;0.10;99.90
22795;DHT22;11564;50.920;11.612;2022-12-07T02:09:54;0.10;99.90
22795;DHT22;11564;50.920;11.612;2022-12-07T02:12:20;0.20;99.90
22795;DHT22;11564;50.920;11.612;2022-12-07T02:14:47;0.40;99.90
22795;DHT22;11564;50.920;11.612;2022-12-07T02:17:28;0.60;99.90
22795;DHT22;11564;50.920;11.612;2022-12-07T02:28:33;1.40;99.90
22795;DHT22;11564;50.920;11.612;2022-12-07T02:31:06;1.30;99.90
22795;DHT22;11564;50.920;11.612;2022-12-07T02:33:36;1.20;99.90
22795;DHT22;11564;50.920;11.612;2022-12-07T02:36:22;1.20;99.90
22795;DHT22;11564;50.920;11.612;2022-12-07T02:39:17;1.20;99.90
22795;DHT22;11564;50.920;11.612;2022-12-07T02:41:47;1.20;99.90
22795;DHT22;11564;50.920;11.612;2022-12-07T02:44:17;1.30;99.90
22795;DHT22;11564;50.920;11.612;2022-12-07T02:46:56;1.30;99.90
22795;DHT22;11564;50.920;11.612;2022-12-07T02:49:24;1.30;99.90
22795;DHT22;11564;50.920;11.612;2022-12-07T02:51:52;1.30;99.90
22795;DHT22;11564;50.920;11.612;2022-12-07T02:54:19;1.30;99.90
22795;DHT22;11564;50.920;11.612;2022-12-07T03:16:21;1.80;99.90
22795;DHT22;11564;50.920;11.612;2022-12-07T03:18:58;1.80;99.90
22795;DHT22;11564;50.920;11.612;2022-12-07T03:21:29;1.90;99.90
22795;DHT22;11564;50.920;11.612;2022-12-07T03:23:59;2.00;99.90
22795;DHT22;11564;50.920;11.612;2022-12-07T03:26:32;2.10;99.90
22795;DHT22;11564;50.920;11.612;2022-12-07T03:29:05;2.10;99.90
22795;DHT22;11564;50.920;11.612;2022-12-07T03:31:38;2.30;99.90
22795;DHT22;11564;50.920;11.612;2022-12-07T03:34:20;2.40;99.90
22795;DHT22;11564;50.920;11.612;2022-12-07T03:36:48;2.40;99.90
22795;DHT22;11564;50.920;11.612;2022-12-07T03:39:34;2.50;99.90
22795;DHT22;11564;50.920;11.612;2022-12-07T03:42:04;2.50;99.90
22795;DHT22;11564;50.920;11.612;2022-12-07T03:44:30;2.40;99.90
22795;DHT22;11564;50.920;11.612;2022-12-07T03:49:23;2.00;99.90
22795;DHT22;11564;50.920;11.612;2022-12-07T03:57:22;1.80;99.90
22795;DHT22;11564;50.920;11.612;2022-12-07T03:59:50;1.80;99.90
22795;DHT22;11564;50.920;11.612;2022-12-07T04:02:16;1.80;99.90
22795;DHT22;11564;50.920;11.612;2022-12-07T04:04:43;1.80;99.90
22795;DHT22;11564;50.920;11.612;2022-12-07T04:07:09;1.80;99.90
22795;DHT22;11564;50.920;11.612;2022-12-07T04:09:34;1.80;99.90
22795;DHT22;11564;50.920;11.612;2022-12-07T04:12:00;1.80;99.90
22795;DHT22;11564;50.920;11.612;2022-12-07T04:14:26;1.90;99.90
22795;DHT22;11564;50.920;11.612;2022-12-07T04:16:54;1.90;99.90
22795;DHT22;11564;50.920;11.612;2022-12-07T04:19:29;1.90;99.90
22795;DHT22;11564;50.920;11.612;2022-12-07T04:21:56;1.90;99.90
22795;DHT22;11564;50.920;11.612;2022-12-07T04:24:23;1.90;99.90
22795;DHT22;11564;50.920;11.612;2022-12-07T04:26:49;1.80;99.90
22795;DHT22;11564;50.920;11.612;2022-12-07T04:29:16;1.80;99.90
22795;DHT22;11564;50.920;11.612;2022-12-07T04:31:42;1.60;99.90
22795;DHT22;11564;50.920;11.612;2022-12-07T04:34:09;1.60;99.90
22795;DHT22;11564;50.920;11.612;2022-12-07T04:36:35;1.70;99.90
22795;DHT22;11564;50.920;11.612;2022-12-07T04:39:01;1.60;99.90
22795;DHT22;11564;50.920;11.612;2022-12-07T04:41:27;1.60;99.90
22795;DHT22;11564;50.920;11.612;2022-12-07T04:44:03;1.70;99.90
22795;DHT22;11564;50.920;11.612;2022-12-07T04:46:31;1.70;99.90
22795;DHT22;11564;50.920;11.612;2022-12-07T04:48:57;1.70;99.90
22795;DHT22;11564;50.920;11.612;2022-12-07T04:51:25;1.70;99.90
22795;DHT22;11564;50.920;11.612;2022-12-07T04:53:52;1.80;99.90
22795;DHT22;11564;50.920;11.612;2022-12-07T04:56:18;1.70;99.90
22795;DHT22;11564;50.920;11.612;2022-12-07T04:58:45;1.80;99.90
22795;DHT22;11564;50.920;11.612;2022-12-07T05:01:12;1.80;99.90
22795;DHT22;11564;50.920;11.612;2022-12-07T05:03:39;1.90;99.90
22795;DHT22;11564;50.920;11.612;2022-12-07T05:06:05;1.90;99.90
22795;DHT22;11564;50.920;11.612;2022-12-07T05:08:32;2.00;99.90
22795;DHT22;11564;50.920;11.612;2022-12-07T05:10:59;2.00;99.90
22795;DHT22;11564;50.920;11.612;2022-12-07T05:13:24;2.00;99.90
22795;DHT22;11564;50.920;11.612;2022-12-07T05:15:50;2.00;99.90
22795;DHT22;11564;50.920;11.612;2022-12-07T05:18:15;2.00;99.90
22795;DHT22;11564;50.920;11.612;2022-12-07T05:20:42;1.90;99.90
22795;DHT22;11564;50.920;11.612;2022-12-07T05:23:08;1.90;99.90
22795;DHT22;11564;50.920;11.612;2022-12-07T05:25:33;1.90;99.90
22795;DHT22;11564;50.920;11.612;2022-12-07T05:27:59;2.00;99.90
22795;DHT22;11564;50.920;11.612;2022-12-07T05:30:25;2.00;99.90
22795;DHT22;11564;50.920;11.612;2022-12-07T05:32:50;2.10;99.90
22795;DHT22;11564;50.920;11.612;2022-12-07T05:35:17;2.10;99.90
22795;DHT22;11564;50.920;11.612;2022-12-07T05:37:43;2.20;99.90
22795;DHT22;11564;50.920;11.612;2022-12-07T05:40:09;2.10;99.90
22795;DHT22;11564;50.920;11.612;2022-12-07T05:42:35;2.20;99.90
22795;DHT22;11564;50.920;11.612;2022-12-07T05:45:01;2.20;99.90
22795;DHT22;11564;50.920;11.612;2022-12-07T05:47:27;2.20;99.90
22795;DHT22;11564;50.920;11.612;2022-12-07T05:49:52;2.30;99.90
22795;DHT22;11564;50.920;11.612;2022-12-07T05:52:18;2.30;99.90
22795;DHT22;11564;50.920;11.612;2022-12-07T05:54:44;2.40;99.90
22795;DHT22;11564;50.920;11.612;2022-12-07T05:57:09;2.40;99.90
22795;DHT22;11564;50.920;11.612;2022-12-07T05:59:35;2.30;99.90
22795;DHT22;11564;50.920;11.612;2022-12-07T06:02:06;2.40;99.90
22795;DHT22;11564;50.920;11.612;2022-12-07T06:04:36;2.40;99.90
22795;DHT22;11564;50.920;11.612;2022-12-07T06:07:02;2.50;99.90
22795;DHT22;11564;50.920;11.612;2022-12-07T06:09:28;2.40;99.90
22795;DHT22;11564;50.920;11.612;2022-12-07T06:11:56;2.40;99.90
22795;DHT22;11564;50.920;11.612;2022-12-07T06:14:41;2.40;99.90
22795;DHT22;11564;50.920;11.612;2022-12-07T06:17:07;2.40;99.90
22795;DHT22;11564;50.920;11.612;2022-12-07T06:19:33;2.40;99.90
22795;DHT22;11564;50.920;11.612;2022-12-07T06:21:59;2.40;99.90
22795;DHT22;11564;50.920;11.612;2022-12-07T06:24:25;2.50;99.90
22795;DHT22;11564;50.920;11.612;2022-12-07T06:26:50;2.60;99.90
22795;DHT22;11564;50.920;11.612;2022-12-07T06:29:16;2.50;99.90
22795;DHT22;11564;50.920;11.612;2022-12-07T06:31:42;2.50;99.90
22795;DHT22;11564;50.920;11.612;2022-12-07T06:34:16;2.50;99.90
22795;DHT22;11564;50.920;11.612;2022-12-07T06:36:42;2.60;99.90
22795;DHT22;11564;50.920;11.612;2022-12-07T06:39:08;2.60;99.90
22795;DHT22;11564;50.920;11.612;2022-12-07T06:41:35;2.50;99.90
22795;DHT22;11564;50.920;11.612;2022-12-07T06:44:02;2.60;99.90
22795;DHT22;11564;50.920;11.612;2022-12-07T06:46:28;2.60;99.90
22795;DHT22;11564;50.920;11.612;2022-12-07T06:48:54;2.70;99.90
22795;DHT22;11564;50.920;11.612;2022-12-07T06:51:19;2.60;99.90
22795;DHT22;11564;50.920;11.612;2022-12-07T06:53:45;2.70;99.90
22795;DHT22;11564;50.920;11.612;2022-12-07T06:56:10;2.60;99.90
22795;DHT22;11564;50.920;11.612;2022-12-07T06:58:36;2.50;99.90
22795;DHT22;11564;50.920;11.612;2022-12-07T07:01:02;2.50;99.90
22795;DHT22;11564;50.920;11.612;2022-12-07T07:03:28;2.40;99.90
22795;DHT22;11564;50.920;11.612;2022-12-07T07:05:54;2.40;99.90
22795;DHT22;11564;50.920;11.612;2022-12-07T07:08:19;2.50;99.90
22795;DHT22;11564;50.920;11.612;2022-12-07T07:10:45;2.40;99.90
22795;DHT22;11564;50.920;11.612;2022-12-07T07:13:11;2.50;99.90
22795;DHT22;11564;50.920;11.612;2022-12-07T07:15:38;2.50;99.90
22795;DHT22;11564;50.920;11.612;2022-12-07T07:18:04;2.60;99.90
22795;DHT22;11564;50.920;11.612;2022-12-07T07:20:30;2.60;99.90
22795;DHT22;11564;50.920;11.612;2022-12-07T07:22:56;2.70;99.90
22795;DHT22;11564;50.920;11.612;2022-12-07T07:25:22;2.70;99.90
22795;DHT22;11564;50.920;11.612;2022-12-07T07:27:47;2.70;99.90
22795;DHT22;11564;50.920;11.612;2022-12-07T07:30:13;2.70;99.90
22795;DHT22;11564;50.920;11.612;2022-12-07T07:32:39;2.80;99.90
22795;DHT22;11564;50.920;11.612;2022-12-07T07:35:05;2.70;99.90
22795;DHT22;11564;50.920;11.612;2022-12-07T07:37:30;2.70;99.90
22795;DHT22;11564;50.920;11.612;2022-12-07T07:39:56;2.70;99.90
22795;DHT22;11564;50.920;11.612;2022-12-07T07:42:22;2.70;99.90
22795;DHT22;11564;50.920;11.612;2022-12-07T07:44:47;2.70;99.90
22795;DHT22;11564;50.920;11.612;2022-12-07T07:47:13;2.60;99.90
22795;DHT22;11564;50.920;11.612;2022-12-07T07:49:39;2.60;99.90
22795;DHT22;11564;50.920;11.612;2022-12-07T07:52:05;2.60;99.90
22795;DHT22;11564;50.920;11.612;2022-12-07T07:54:31;2.60;99.90
22795;DHT22;11564;50.920;11.612;2022-12-07T07:56:57;2.60;99.90
22795;DHT22;11564;50.920;11.612;2022-12-07T07:59:22;2.70;99.90
22795;DHT22;11564;50.920;11.612;2022-12-07T08:01:48;2.70;99.90
22795;DHT22;11564;50.920;11.612;2022-12-07T08:04:14;2.80;99.90
22795;DHT22;11564;50.920;11.612;2022-12-07T08:06:39;2.90;99.90
22795;DHT22;11564;50.920;11.612;2022-12-07T08:09:07;3.00;99.90
22795;DHT22;11564;50.920;11.612;2022-12-07T08:11:33;3.10;99.90
22795;DHT22;11564;50.920;11.612;2022-12-07T08:13:59;3.10;99.90
22795;DHT22;11564;50.920;11.612;2022-12-07T08:16:24;3.10;99.90
22795;DHT22;11564;50.920;11.612;2022-12-07T08:18:50;3.20;99.90
22795;DHT22;11564;50.920;11.612;2022-12-07T08:21:16;3.30;99.90
22795;DHT22;11564;50.920;11.612;2022-12-07T08:23:42;3.30;99.90
22795;DHT22;11564;50.920;11.612;2022-12-07T08:26:11;3.30;99.90
22795;DHT22;11564;50.920;11.612;2022-12-07T08:28:38;3.30;99.90
22795;DHT22;11564;50.920;11.612;2022-12-07T08:31:10;3.30;99.90
22795;DHT22;11564;50.920;11.612;2022-12-07T08:33:36;3.30;99.90
22795;DHT22;11564;50.920;11.612;2022-12-07T08:36:08;3.30;99.90
22795;DHT22;11564;50.920;11.612;2022-12-07T08:38:38;3.30;99.90
22795;DHT22;11564;50.920;11.612;2022-12-07T08:41:05;3.30;99.90
22795;DHT22;11564;50.920;11.612;2022-12-07T08:43:31;3.40;99.90
22795;DHT22;11564;50.920;11.612;2022-12-07T08:48:43;3.40;99.90
22795;DHT22;11564;50.920;11.612;2022-12-07T08:51:10;3.40;99.90
22795;DHT22;11564;50.920;11.612;2022-12-07T08:53:37;3.50;99.90
22795;DHT22;11564;50.920;11.612;2022-12-07T08:56:04;3.50;99.90
22795;DHT22;11564;50.920;11.612;2022-12-07T08:58:30;3.60;99.90
22795;DHT22;11564;50.920;11.612;2022-12-07T09:00:56;3.60;99.90
22795;DHT22;11564;50.920;11.612;2022-12-07T09:03:21;3.60;99.90
22795;DHT22;11564;50.920;11.612;2022-12-07T09:05:47;3.80;99.90
22795;DHT22;11564;50.920;11.612;2022-12-07T09:08:13;3.80;99.90
22795;DHT22;11564;50.920;11.612;2022-12-07T09:10:38;3.70;99.90
22795;DHT22;11564;50.920;11.612;2022-12-07T09:13:04;3.70;99.90
22795;DHT22;11564;50.920;11.612;2022-12-07T09:15:30;3.80;99.90
22795;DHT22;11564;50.920;11.612;2022-12-07T09:17:56;3.90;99.90
22795;DHT22;11564;50.920;11.612;2022-12-07T09:20:22;3.90;99.90
22795;DHT22;11564;50.920;11.612;2022-12-07T09:22:48;4.00;99.90
22795;DHT22;11564;50.920;11.612;2022-12-07T09:25:13;4.00;99.90
22795;DHT22;11564;50.920;11.612;2022-12-07T09:27:39;3.90;99.90
22795;DHT22;11564;50.920;11.612;2022-12-07T09:30:07;3.90;99.90
22795;DHT22;11564;50.920;11.612;2022-12-07T09:32:32;3.80;99.90
22795;DHT22;11564;50.920;11.612;2022-12-07T09:34:58;3.70;99.90
22795;DHT22;11564;50.920;11.612;2022-12-07T09:37:24;3.80;99.90
22795;DHT22;11564;50.920;11.612;2022-12-07T09:39:49;3.80;99.90
22795;DHT22;11564;50.920;11.612;2022-12-07T09:44:56;3.90;99.90
22795;DHT22;11564;50.920;11.612;2022-12-07T09:47:23;4.00;99.90
22795;DHT22;11564;50.920;11.612;2022-12-07T09:49:49;4.00;99.90
22795;DHT22;11564;50.920;11.612;2022-12-07T09:52:21;4.00;99.90
22795;DHT22;11564;50.920;11.612;2022-12-07T09:54:50;4.20;99.90
22795;DHT22;11564;50.920;11.612;2022-12-07T09:57:17;4.10;99.90
22795;DHT22;11564;50.920;11.612;2022-12-07T09:59:43;4.10;99.90
22795;DHT22;11564;50.920;11.612;2022-12-07T10:04:52;4.20;99.90
22795;DHT22;11564;50.920;11.612;2022-12-07T10:07:18;4.10;99.90
22795;DHT22;11564;50.920;11.612;2022-12-07T10:09:44;4.10;99.90
22795;DHT22;11564;50.920;11.612;2022-12-07T10:12:11;4.10;99.90
22795;DHT22;11564;50.920;11.612;2022-12-07T10:14:39;4.10;99.90
22795;DHT22;11564;50.920;11.612;2022-12-07T10:17:40;4.40;99.90
22795;DHT22;11564;50.920;11.612;2022-12-07T10:22:37;4.50;99.90
22795;DHT22;11564;50.920;11.612;2022-12-07T10:25:18;4.50;99.90
22795;DHT22;11564;50.920;11.612;2022-12-07T10:27:57;4.50;99.90
22795;DHT22;11564;50.920;11.612;2022-12-07T10:30:23;4.50;99.90
22795;DHT22;11564;50.920;11.612;2022-12-07T10:32:49;4.50;99.90
22795;DHT22;11564;50.920;11.612;2022-12-07T10:35:21;4.60;99.90
22795;DHT22;11564;50.920;11.612;2022-12-07T10:37:48;4.60;99.90
22795;DHT22;11564;50.920;11.612;2022-12-07T10:40:33;4.70;99.90
22795;DHT22;11564;50.920;11.612;2022-12-07T10:43:24;4.80;99.90
22795;DHT22;11564;50.920;11.612;2022-12-07T10:46:01;4.80;99.90
22795;DHT22;11564;50.920;11.612;2022-12-07T10:58:12;4.60;99.90
22795;DHT22;11564;50.920;11.612;2022-12-07T11:12:01;4.80;99.90
22795;DHT22;11564;50.920;11.612;2022-12-07T11:17:20;5.10;99.90
22795;DHT22;11564;50.920;11.612;2022-12-07T11:22:41;5.30;99.90
22795;DHT22;11564;50.920;11.612;2022-12-07T11:25:32;5.40;99.90
22795;DHT22;11564;50.920;11.612;2022-12-07T11:28:29;5.60;99.90
22795;DHT22;11564;50.920;11.612;2022-12-07T11:31:19;5.90;99.90
22795;DHT22;11564;50.920;11.612;2022-12-07T11:39:10;5.40;99.90
22795;DHT22;11564;50.920;11.612;2022-12-07T11:41:39;5.50;99.90
22795;DHT22;11564;50.920;11.612;2022-12-07T11:44:12;5.70;99.90
22795;DHT22;11564;50.920;11.612;2022-12-07T11:46:49;5.60;99.90
22795;DHT22;11564;50.920;11.612;2022-12-07T11:55:00;5.50;99.90
22795;DHT22;11564;50.920;11.612;2022-12-07T11:57:37;6.00;99.90
22795;DHT22;11564;50.920;11.612;2022-12-07T12:00:06;5.90;99.90
22795;DHT22;11564;50.920;11.612;2022-12-07T12:03:18;5.70;99.90
22795;DHT22;11564;50.920;11.612;2022-12-07T12:05:36;6.00;99.90
22795;DHT22;11564;50.920;11.612;2022-12-07T12:08:18;6.20;99.90
22795;DHT22;11564;50.920;11.612;2022-12-07T12:10:55;6.00;99.90
22795;DHT22;11564;50.920;11.612;2022-12-07T12:16:21;5.60;99.90
22795;DHT22;11564;50.920;11.612;2022-12-07T12:22:05;5.40;99.90
22795;DHT22;11564;50.920;11.612;2022-12-07T12:24:33;5.40;99.90
22795;DHT22;11564;50.920;11.612;2022-12-07T12:27:06;5.30;99.90
22795;DHT22;11564;50.920;11.612;2022-12-07T12:29:39;5.60;99.90
22795;DHT22;11564;50.920;11.612;2022-12-07T12:32:18;5.70;99.90
22795;DHT22;11564;50.920;11.612;2022-12-07T12:42:44;4.90;99.90
22795;DHT22;11564;50.920;11.612;2022-12-07T12:45:30;4.80;99.90
22795;DHT22;11564;50.920;11.612;2022-12-07T12:47:57;4.60;99.90
22795;DHT22;11564;50.920;11.612;2022-12-07T12:53:00;4.60;99.90
22795;DHT22;11564;50.920;11.612;2022-12-07T13:00:46;4.60;99.90
22795;DHT22;11564;50.920;11.612;2022-12-07T13:03:30;4.50;99.90
22795;DHT22;11564;50.920;11.612;2022-12-07T13:08:45;4.10;99.90
22795;DHT22;11564;50.920;11.612;2022-12-07T13:11:33;3.70;99.90
22795;DHT22;11564;50.920;11.612;2022-12-07T13:19:59;2.90;99.90
22795;DHT22;11564;50.920;11.612;2022-12-07T13:27:57;2.90;99.90
22795;DHT22;11564;50.920;11.612;2022-12-07T13:30:24;2.90;99.90
22795;DHT22;11564;50.920;11.612;2022-12-07T13:32:58;2.90;99.90
22795;DHT22;11564;50.920;11.612;2022-12-07T13:35:35;2.90;99.90
22795;DHT22;11564;50.920;11.612;2022-12-07T13:38:13;2.90;99.90
22795;DHT22;11564;50.920;11.612;2022-12-07T13:40:40;2.90;99.90
22795;DHT22;11564;50.920;11.612;2022-12-07T13:43:14;3.00;99.90
22795;DHT22;11564;50.920;11.612;2022-12-07T13:45:41;3.00;99.90
22795;DHT22;11564;50.920;11.612;2022-12-07T13:48:44;3.10;99.90
22795;DHT22;11564;50.920;11.612;2022-12-07T13:51:18;3.10;99.90
22795;DHT22;11564;50.920;11.612;2022-12-07T13:53:53;3.10;99.90
22795;DHT22;11564;50.920;11.612;2022-12-07T13:56:22;3.00;99.90
22795;DHT22;11564;50.920;11.612;2022-12-07T13:58:48;3.10;99.90
22795;DHT22;11564;50.920;11.612;2022-12-07T14:01:14;3.10;99.90
22795;DHT22;11564;50.920;11.612;2022-12-07T14:03:40;3.10;99.90
22795;DHT22;11564;50.920;11.612;2022-12-07T14:06:19;3.20;99.90
22795;DHT22;11564;50.920;11.612;2022-12-07T14:08:46;3.10;99.90
22795;DHT22;11564;50.920;11.612;2022-12-07T14:11:17;3.10;99.90
22795;DHT22;11564;50.920;11.612;2022-12-07T14:13:56;3.20;99.90
22795;DHT22;11564;50.920;11.612;2022-12-07T14:18:50;3.20;99.90
22795;DHT22;11564;50.920;11.612;2022-12-07T14:21:22;3.10;99.90
22795;DHT22;11564;50.920;11.612;2022-12-07T14:24:17;3.10;99.90
22795;DHT22;11564;50.920;11.612;2022-12-07T14:26:45;3.10;99.90
22795;DHT22;11564;50.920;11.612;2022-12-07T14:31:54;3.10;99.90
22795;DHT22;11564;50.920;11.612;2022-12-07T14:34:20;3.20;99.90
22795;DHT22;11564;50.920;11.612;2022-12-07T14:36:46;3.20;99.90
22795;DHT22;11564;50.920;11.612;2022-12-07T14:39:12;3.10;99.90
22795;DHT22;11564;50.920;11.612;2022-12-07T14:41:38;3.10;99.90
22795;DHT22;11564;50.920;11.612;2022-12-07T14:44:16;3.00;99.90
22795;DHT22;11564;50.920;11.612;2022-12-07T14:46:42;3.00;99.90
22795;DHT22;11564;50.920;11.612;2022-12-07T14:49:08;3.00;99.90
22795;DHT22;11564;50.920;11.612;2022-12-07T14:51:36;2.90;99.90
22795;DHT22;11564;50.920;11.612;2022-12-07T14:54:04;2.80;99.90
22795;DHT22;11564;50.920;11.612;2022-12-07T14:56:30;2.90;99.90
22795;DHT22;11564;50.920;11.612;2022-12-07T14:58:56;2.90;99.90
22795;DHT22;11564;50.920;11.612;2022-12-07T15:01:22;2.90;99.90
22795;DHT22;11564;50.920;11.612;2022-12-07T15:03:48;2.70;99.90
22795;DHT22;11564;50.920;11.612;2022-12-07T15:06:16;2.80;99.90
22795;DHT22;11564;50.920;11.612;2022-12-07T15:08:43;2.60;99.90
22795;DHT22;11564;50.920;11.612;2022-12-07T15:11:17;2.60;99.90
22795;DHT22;11564;50.920;11.612;2022-12-07T15:13:43;2.50;99.90
22795;DHT22;11564;50.920;11.612;2022-12-07T15:16:27;2.40;99.90
22795;DHT22;11564;50.920;11.612;2022-12-07T15:18:52;2.40;99.90
22795;DHT22;11564;50.920;11.612;2022-12-07T15:21:18;2.30;99.90
22795;DHT22;11564;50.920;11.612;2022-12-07T15:23:43;2.30;99.90
22795;DHT22;11564;50.920;11.612;2022-12-07T15:26:11;2.20;99.90
22795;DHT22;11564;50.920;11.612;2022-12-07T15:28:36;2.10;99.90
22795;DHT22;11564;50.920;11.612;2022-12-07T15:31:02;2.10;99.90
22795;DHT22;11564;50.920;11.612;2022-12-07T15:33:28;2.20;99.90
22795;DHT22;11564;50.920;11.612;2022-12-07T15:35:53;2.10;99.90
22795;DHT22;11564;50.920;11.612;2022-12-07T15:38:19;2.00;99.90
22795;DHT22;11564;50.920;11.612;2022-12-07T15:40:48;2.00;99.90
22795;DHT22;11564;50.920;11.612;2022-12-07T15:43:14;2.00;99.90
22795;DHT22;11564;50.920;11.612;2022-12-07T15:45:58;2.00;99.90
22795;DHT22;11564;50.920;11.612;2022-12-07T15:48:25;2.10;99.90
22795;DHT22;11564;50.920;11.612;2022-12-07T15:50:50;2.10;99.90
22795;DHT22;11564;50.920;11.612;2022-12-07T15:53:16;2.30;99.90
22795;DHT22;11564;50.920;11.612;2022-12-07T15:55:42;2.30;99.90
22795;DHT22;11564;50.920;11.612;2022-12-07T15:58:08;2.30;99.90
22795;DHT22;11564;50.920;11.612;2022-12-07T16:00:33;2.20;99.90
22795;DHT22;11564;50.920;11.612;2022-12-07T16:02:59;2.10;99.90
22795;DHT22;11564;50.920;11.612;2022-12-07T16:05:24;2.10;99.90
22795;DHT22;11564;50.920;11.612;2022-12-07T16:07:50;2.00;99.90
22795;DHT22;11564;50.920;11.612;2022-12-07T16:10:16;2.00;99.90
22795;DHT22;11564;50.920;11.612;2022-12-07T16:12:41;1.90;99.90
22795;DHT22;11564;50.920;11.612;2022-12-07T16:15:07;1.90;99.90
22795;DHT22;11564;50.920;11.612;2022-12-07T16:17:33;1.80;99.90
22795;DHT22;11564;50.920;11.612;2022-12-07T16:19:59;1.80;99.90
22795;DHT22;11564;50.920;11.612;2022-12-07T16:22:24;2.00;99.90
22795;DHT22;11564;50.920;11.612;2022-12-07T16:24:50;2.00;99.90
22795;DHT22;11564;50.920;11.612;2022-12-07T16:27:17;2.10;99.90
22795;DHT22;11564;50.920;11.612;2022-12-07T16:29:42;2.20;99.90
22795;DHT22;11564;50.920;11.612;2022-12-07T16:32:08;2.20;99.90
22795;DHT22;11564;50.920;11.612;2022-12-07T16:34:33;2.20;99.90
22795;DHT22;11564;50.920;11.612;2022-12-07T16:36:59;2.20;99.90
22795;DHT22;11564;50.920;11.612;2022-12-07T16:39:25;2.20;99.90
22795;DHT22;11564;50.920;11.612;2022-12-07T16:41:50;2.20;99.90
22795;DHT22;11564;50.920;11.612;2022-12-07T16:44:18;2.20;99.90
22795;DHT22;11564;50.920;11.612;2022-12-07T16:46:43;2.30;99.90
22795;DHT22;11564;50.920;11.612;2022-12-07T16:49:15;2.30;99.90
22795;DHT22;11564;50.920;11.612;2022-12-07T16:51:41;2.40;99.90
22795;DHT22;11564;50.920;11.612;2022-12-07T16:54:13;2.40;99.90
22795;DHT22;11564;50.920;11.612;2022-12-07T16:56:38;2.30;99.90
22795;DHT22;11564;50.920;11.612;2022-12-07T16:59:04;2.30;99.90
22795;DHT22;11564;50.920;11.612;2022-12-07T17:01:30;2.30;99.90
22795;DHT22;11564;50.920;11.612;2022-12-07T17:03:58;2.40;99.90
22795;DHT22;11564;50.920;11.612;2022-12-07T17:06:25;2.40;99.90
22795;DHT22;11564;50.920;11.612;2022-12-07T17:08:53;2.30;99.90
22795;DHT22;11564;50.920;11.612;2022-12-07T17:11:28;2.40;99.90
22795;DHT22;11564;50.920;11.612;2022-12-07T17:13:54;2.40;99.90
22795;DHT22;11564;50.920;11.612;2022-12-07T17:16:39;2.30;99.90
22795;DHT22;11564;50.920;11.612;2022-12-07T17:19:09;2.30;99.90
22795;DHT22;11564;50.920;11.612;2022-12-07T17:21:35;2.20;99.90
22795;DHT22;11564;50.920;11.612;2022-12-07T17:24:03;2.30;99.90
22795;DHT22;11564;50.920;11.612;2022-12-07T17:26:29;2.20;99.90
22795;DHT22;11564;50.920;11.612;2022-12-07T17:28:56;2.20;99.90
22795;DHT22;11564;50.920;11.612;2022-12-07T17:31:23;2.20;99.90
22795;DHT22;11564;50.920;11.612;2022-12-07T17:33:49;2.10;99.90
22795;DHT22;11564;50.920;11.612;2022-12-07T17:36:17;2.30;99.90
22795;DHT22;11564;50.920;11.612;2022-12-07T17:38:44;2.40;99.90
22795;DHT22;11564;50.920;11.612;2022-12-07T17:41:16;2.40;99.90
22795;DHT22;11564;50.920;11.612;2022-12-07T17:44:01;2.40;99.90
22795;DHT22;11564;50.920;11.612;2022-12-07T17:46:27;2.50;99.90